Yengema Airport

Jump to: basic info | weather | comments

Related pages: nearby airports | nearby navaids | notams | map

Basic information (top)

Codes: WYE GFYE
Location: lon 8.610470, lat -11.045400, elev 1,300 ft / 396 m msl
Status: medium_airport
Scheduled airline service: yes
Links: Wikipedia Mobile

Weather (top)

Current conditions for Lungi International Airport 128nm (236km) W (rec'd 2014/08/31 18:00Z):

GFLL 311800Z 21007KT 9999 TS BKN012 FEW025CB 27/23 Q1012 RMK CB-NE/SE

Airport forecast for Lungi International Airport 128nm (236km) W (rec'd 2014/09/01 00:00Z):

TAF TAF GFLL 312200Z 3100/0206 24008KT 8000 BKN010 PROB30 
      TEMPO 0102/0106 28010KT 7000 TS/TSRA BKN010 FEW026CB 
      BECMG 0109/0111 26010KT 8000 -RA BKN011 
     FM011200 9999 BKN013

Latest comments (top)

No comments yet for Yengema Airport

More... (top)

See also NOTAMs and nearby airports and navaids, or visit the Yengema Airport page at the main OurAirports website..